createdAt,value
2023-02-27T00:03:07.340Z,-4.20
2023-02-27T00:07:11.145Z,-4.30
2023-02-27T00:11:16.205Z,-4.10
2023-02-27T00:15:21.341Z,-4.10
2023-02-27T00:19:28.382Z,-4.20
2023-02-27T00:23:31.992Z,-4.20
2023-02-27T00:27:37.833Z,-4.20
2023-02-27T00:32:06.850Z,-4.20
2023-02-27T00:36:35.835Z,-4.20
2023-02-27T00:40:44.490Z,-4.10
2023-02-27T00:44:49.439Z,-4.10
2023-02-27T00:48:53.131Z,-4.10
2023-02-27T00:53:02.102Z,-4.10
2023-02-27T00:57:05.674Z,-4.00
2023-02-27T01:01:10.577Z,-4.10
2023-02-27T01:05:30.646Z,-4.10
2023-02-27T01:10:07.517Z,-4.10
2023-02-27T01:14:11.043Z,-4.10
2023-02-27T01:18:15.958Z,-4.10
2023-02-27T01:22:19.519Z,-4.10
2023-02-27T01:26:23.243Z,-4.10
2023-02-27T01:30:26.950Z,-4.10
2023-02-27T01:34:37.869Z,-4.30
2023-02-27T01:38:41.608Z,-4.10
2023-02-27T01:42:46.942Z,-4.30
2023-02-27T01:46:51.740Z,-4.20
2023-02-27T01:51:00.240Z,-4.20
2023-02-27T01:55:31.687Z,-4.20
2023-02-27T02:00:00.217Z,-4.20
2023-02-27T02:04:31.231Z,-4.20
2023-02-27T02:08:40.546Z,-4.20
2023-02-27T02:12:45.330Z,-4.20
2023-02-27T02:17:27.742Z,-4.30
2023-02-27T02:22:10.034Z,-4.20
2023-02-27T02:26:35.110Z,-4.30
2023-02-27T02:31:35.542Z,-4.30
2023-02-27T02:36:13.549Z,-4.40
2023-02-27T02:40:29.644Z,-4.30
2023-02-27T02:44:49.151Z,-4.30
2023-02-27T02:48:57.645Z,-4.40
2023-02-27T02:53:42.567Z,-4.40
2023-02-27T02:58:15.005Z,-4.50
2023-02-27T03:02:23.546Z,-4.60
2023-02-27T03:06:31.044Z,-4.80
2023-02-27T03:10:42.140Z,-4.80
2023-02-27T03:19:26.518Z,-5.00
2023-02-27T03:23:35.880Z,-5.10
2023-02-27T03:27:45.038Z,-5.20
2023-02-27T03:36:17.198Z,-5.20
2023-02-27T03:40:34.029Z,-5.30
2023-02-27T03:45:09.963Z,-5.40
2023-02-27T03:49:14.973Z,-5.40
2023-02-27T03:53:42.560Z,-5.50
2023-02-27T03:57:48.219Z,-5.60
2023-02-27T04:01:53.596Z,-5.50
2023-02-27T04:06:43.216Z,-5.50
2023-02-27T04:11:26.372Z,-5.50
2023-02-27T04:15:42.997Z,-5.60
2023-02-27T04:20:25.239Z,-5.70
2023-02-27T04:24:40.570Z,-5.80
2023-02-27T04:28:49.388Z,-5.70
2023-02-27T04:32:56.420Z,-5.70
2023-02-27T04:37:03.910Z,-5.70
2023-02-27T04:42:03.537Z,-5.70
2023-02-27T04:55:47.504Z,-5.80
2023-02-27T04:59:57.156Z,-5.90
2023-02-27T05:04:04.629Z,-5.90
2023-02-27T05:08:34.902Z,-6.00
2023-02-27T05:12:47.673Z,-5.90
2023-02-27T05:16:55.397Z,-6.00
2023-02-27T05:21:32.015Z,-6.00
2023-02-27T05:25:39.669Z,-6.10
2023-02-27T05:30:04.784Z,-6.00
2023-02-27T05:34:23.198Z,-6.00
2023-02-27T05:38:31.260Z,-6.10
2023-02-27T05:42:38.460Z,-6.10
2023-02-27T05:47:10.636Z,-6.00
2023-02-27T05:51:47.897Z,-5.90
2023-02-27T05:55:55.187Z,-5.90
2023-02-27T06:00:04.489Z,-5.80
2023-02-27T06:04:15.348Z,-5.70
2023-02-27T06:08:18.868Z,-5.70
2023-02-27T06:12:23.736Z,-5.60
2023-02-27T06:16:29.970Z,-5.50
2023-02-27T06:20:33.864Z,-5.40
2023-02-27T06:24:45.976Z,-5.30
2023-02-27T06:28:51.270Z,-5.20
2023-02-27T06:33:12.507Z,-5.00
2023-02-27T06:37:15.968Z,-5.00
2023-02-27T06:41:32.541Z,-4.80
2023-02-27T06:45:37.748Z,-4.70
2023-02-27T06:50:03.571Z,-4.70
2023-02-27T06:54:09.256Z,-4.70
2023-02-27T06:58:13.973Z,-4.60
2023-02-27T07:02:20.722Z,-4.60
2023-02-27T07:06:24.782Z,-4.50
2023-02-27T07:10:53.170Z,-4.50
2023-02-27T07:14:58.336Z,-4.60
2023-02-27T07:19:29.177Z,-4.40
2023-02-27T07:23:32.849Z,-4.50
2023-02-27T07:27:38.698Z,-4.30
2023-02-27T07:31:42.910Z,-4.30
2023-02-27T07:36:17.155Z,-4.30
2023-02-27T07:40:20.966Z,-4.20
2023-02-27T07:44:30.201Z,-4.20
2023-02-27T07:48:34.788Z,-4.10
2023-02-27T07:52:41.517Z,-4.00
2023-02-27T07:56:46.126Z,-3.90
2023-02-27T08:00:49.949Z,-4.10
2023-02-27T08:04:57.218Z,-4.00
2023-02-27T08:09:04.140Z,-3.90
2023-02-27T08:13:07.790Z,-3.90
2023-02-27T08:18:21.949Z,-3.80
2023-02-27T08:22:25.781Z,-3.70
2023-02-27T08:26:32.462Z,-3.80
2023-02-27T08:30:36.146Z,-3.80
2023-02-27T08:35:10.140Z,-3.70
2023-02-27T08:39:18.332Z,-3.60
2023-02-27T08:43:25.105Z,-3.70
2023-02-27T08:47:28.644Z,-3.70
2023-02-27T08:52:26.392Z,-3.50
2023-02-27T08:56:30.587Z,-3.60
2023-02-27T09:00:36.451Z,-3.60
2023-02-27T09:04:44.092Z,-3.70
2023-02-27T09:08:49.124Z,-3.70
2023-02-27T09:12:53.015Z,-3.50
2023-02-27T09:16:58.613Z,-3.50
2023-02-27T09:21:29.586Z,-3.40
2023-02-27T09:25:33.436Z,-3.30
2023-02-27T09:30:09.861Z,-3.30
2023-02-27T09:34:15.002Z,-3.00
2023-02-27T09:38:48.204Z,-2.90
2023-02-27T09:42:59.439Z,-2.90
2023-02-27T09:47:05.118Z,-2.80
2023-02-27T09:51:41.394Z,-2.90
2023-02-27T09:55:47.944Z,-2.80
2023-02-27T10:01:00.997Z,-2.70
2023-02-27T10:06:21.779Z,-2.70
2023-02-27T10:10:39.499Z,-2.60
2023-02-27T10:14:47.187Z,-2.50
2023-02-27T10:19:07.660Z,-2.30
2023-02-27T10:23:16.486Z,-1.90
2023-02-27T10:27:23.329Z,-2.00
2023-02-27T10:31:34.620Z,-1.80
2023-02-27T10:35:42.402Z,-1.60
2023-02-27T10:40:42.549Z,-1.60
2023-02-27T10:44:57.013Z,-1.40
2023-02-27T10:49:01.985Z,-1.50
2023-02-27T10:53:18.129Z,-1.30
2023-02-27T10:57:27.894Z,-1.50
2023-02-27T11:01:48.019Z,-1.50
2023-02-27T11:06:05.678Z,-1.40
2023-02-27T11:10:20.745Z,-1.40
2023-02-27T11:14:35.036Z,-1.40
2023-02-27T11:18:41.576Z,-1.40
2023-02-27T11:22:45.408Z,-1.50
2023-02-27T11:27:06.442Z,-1.40
2023-02-27T11:31:36.029Z,-1.30
2023-02-27T11:35:41.427Z,-1.20
2023-02-27T11:40:06.516Z,-1.00
2023-02-27T11:44:38.827Z,-1.00
2023-02-27T11:48:52.802Z,-0.60
2023-02-27T11:53:07.407Z,-0.50
2023-02-27T12:02:21.855Z,-1.00
2023-02-27T12:11:22.058Z,-0.90
2023-02-27T12:15:48.210Z,-0.80
2023-02-27T12:20:19.062Z,-1.30
2023-02-27T12:24:26.330Z,-1.30
2023-02-27T12:28:49.755Z,-1.50
2023-02-27T12:33:12.568Z,-1.40
2023-02-27T12:37:28.832Z,-1.30
2023-02-27T12:41:59.175Z,-1.40
2023-02-27T12:46:42.080Z,-1.20
2023-02-27T12:51:22.181Z,-1.00
2023-02-27T12:55:52.550Z,-1.10
2023-02-27T13:00:13.316Z,-1.40
2023-02-27T13:04:44.127Z,-1.30
2023-02-27T13:09:32.442Z,-1.40
2023-02-27T13:14:07.424Z,-1.40
2023-02-27T13:18:55.016Z,-1.40
2023-02-27T13:23:24.030Z,-1.80
2023-02-27T13:32:41.332Z,-1.80
2023-02-27T13:36:50.512Z,-1.80
2023-02-27T13:41:36.292Z,-1.70
2023-02-27T13:46:06.670Z,-1.70
2023-02-27T13:50:47.669Z,-1.60
2023-02-27T13:54:55.226Z,-1.80
2023-02-27T13:59:24.193Z,-1.90
2023-02-27T14:03:30.351Z,-1.90
2023-02-27T14:07:52.934Z,-1.90
2023-02-27T14:12:04.026Z,-2.10
2023-02-27T14:16:09.749Z,-2.10
2023-02-27T14:20:59.354Z,-1.90
2023-02-27T14:25:06.901Z,-1.90
2023-02-27T14:29:42.844Z,-2.00
2023-02-27T14:34:32.086Z,-2.00
2023-02-27T14:38:57.594Z,-2.10
2023-02-27T14:43:22.934Z,-2.20
2023-02-27T14:47:32.152Z,-2.40
2023-02-27T14:51:38.874Z,-2.30
2023-02-27T14:55:42.616Z,-2.40
2023-02-27T14:59:49.409Z,-2.50
2023-02-27T15:03:59.653Z,-2.50
2023-02-27T15:08:03.867Z,-2.50
2023-02-27T15:12:07.985Z,-2.30
2023-02-27T15:16:38.932Z,-2.40
2023-02-27T15:20:44.272Z,-2.30
2023-02-27T15:25:49.928Z,-2.50
2023-02-27T15:30:31.205Z,-2.60
2023-02-27T15:41:32.739Z,-2.80
2023-02-27T15:46:06.284Z,-2.80
2023-02-27T15:50:32.260Z,-2.90
2023-02-27T15:54:49.530Z,-2.90
2023-02-27T15:59:00.565Z,-2.90
2023-02-27T16:09:24.918Z,-3.00
2023-02-27T16:19:36.868Z,-3.00
2023-02-27T16:23:41.101Z,-3.00
2023-02-27T16:28:22.181Z,-3.10
2023-02-27T16:32:30.354Z,-3.10
2023-02-27T16:36:56.359Z,-3.10
2023-02-27T16:41:05.744Z,-3.10
2023-02-27T16:55:43.402Z,-3.10
2023-02-27T17:00:07.120Z,-3.20
2023-02-27T17:04:25.558Z,-3.10
2023-02-27T17:13:00.865Z,-3.20
2023-02-27T17:17:16.326Z,-3.10
2023-02-27T17:21:22.488Z,-3.20
2023-02-27T17:25:28.638Z,-3.20
2023-02-27T17:30:37.111Z,-3.20
2023-02-27T17:35:10.643Z,-3.20
2023-02-27T17:39:31.698Z,-3.20
2023-02-27T17:49:56.187Z,-3.20
2023-02-27T17:55:31.360Z,-3.30
2023-02-27T18:18:17.359Z,-3.30
2023-02-27T18:23:12.569Z,-3.30
2023-02-27T18:44:52.086Z,-3.40
2023-02-27T18:49:55.567Z,-3.30
2023-02-27T19:23:17.303Z,-3.30
2023-02-27T19:28:08.632Z,-3.40
2023-02-27T19:43:13.675Z,-3.40
2023-02-27T20:17:00.886Z,-3.50
2023-02-27T22:48:22.122Z,-4.00
